createdAt,value
2022-10-24T00:00:03.432Z,84.33
2022-10-24T00:00:13.471Z,84.48
2022-10-24T00:00:22.446Z,84.43
2022-10-24T00:00:33.512Z,84.33
2022-10-24T00:00:42.030Z,84.40
2022-10-24T00:00:52.067Z,84.25
2022-10-24T00:01:01.942Z,84.34
2022-10-24T00:01:12.004Z,84.22
2022-10-24T00:01:23.393Z,84.11
2022-10-24T00:01:33.392Z,84.24
2022-10-24T00:01:43.412Z,84.27
2022-10-24T00:01:53.392Z,84.27
2022-10-24T00:02:01.974Z,84.26
2022-10-24T00:02:11.923Z,84.13
2022-10-24T00:02:21.935Z,84.23
2022-10-24T00:02:32.749Z,84.17
2022-10-24T00:02:43.410Z,84.06
2022-10-24T00:02:53.406Z,84.10
2022-10-24T00:03:03.453Z,84.13
2022-10-24T00:03:13.396Z,84.10
2022-10-24T00:03:23.389Z,84.08
2022-10-24T00:03:33.373Z,84.17
2022-10-24T00:03:42.897Z,84.06
2022-10-24T00:03:51.956Z,83.98
2022-10-24T00:04:03.391Z,83.96
2022-10-24T00:04:12.801Z,84.06
2022-10-24T00:04:22.004Z,84.05
2022-10-24T00:04:31.930Z,84.00
2022-10-24T00:04:42.745Z,84.04
2022-10-24T00:04:53.373Z,84.06
2022-10-24T00:05:02.115Z,83.94
2022-10-24T00:05:12.222Z,83.89
2022-10-24T00:05:21.905Z,83.89
2022-10-24T00:05:33.354Z,83.84
2022-10-24T00:05:42.905Z,84.00
2022-10-24T00:05:53.357Z,83.78
2022-10-24T00:06:02.142Z,83.71
2022-10-24T00:06:12.854Z,83.60
2022-10-24T00:06:21.933Z,83.62
2022-10-24T00:06:33.353Z,83.62
2022-10-24T00:06:42.814Z,83.75
2022-10-24T00:06:52.283Z,83.71
2022-10-24T00:07:01.911Z,83.65
2022-10-24T00:07:12.763Z,83.67
2022-10-24T00:07:23.377Z,83.79
2022-10-24T00:07:31.911Z,83.85
2022-10-24T00:07:42.894Z,83.74
2022-10-24T00:07:51.915Z,83.89
2022-10-24T00:08:01.985Z,83.71
2022-10-24T00:08:12.807Z,83.74
2022-10-24T00:08:23.351Z,83.81
2022-10-24T00:08:33.354Z,83.73
2022-10-24T00:08:42.368Z,83.61
2022-10-24T00:08:52.302Z,83.57
2022-10-24T00:09:02.332Z,83.64
2022-10-24T00:09:13.346Z,83.56
2022-10-24T00:09:22.123Z,83.62
2022-10-24T00:09:32.325Z,83.46
2022-10-24T00:09:42.839Z,83.55
2022-10-24T00:09:53.344Z,83.52
2022-10-24T00:10:03.326Z,83.47
2022-10-24T00:10:11.906Z,83.32
2022-10-24T00:10:23.335Z,83.27
2022-10-24T00:10:32.695Z,83.34
2022-10-24T00:10:41.887Z,83.24
2022-10-24T00:10:52.182Z,83.18
2022-10-24T00:11:01.856Z,83.14
2022-10-24T00:11:11.876Z,83.14
2022-10-24T00:11:23.325Z,83.23
2022-10-24T00:11:31.889Z,83.37
2022-10-24T00:11:41.872Z,83.20
2022-10-24T00:11:51.916Z,83.26
2022-10-24T00:12:03.338Z,83.23
2022-10-24T00:12:13.424Z,83.25
2022-10-24T00:12:33.306Z,83.15
2022-10-24T00:12:43.681Z,83.17
2022-10-24T00:12:51.884Z,83.14
2022-10-24T00:13:01.856Z,83.00
2022-10-24T00:13:13.296Z,83.09
2022-10-24T00:13:23.296Z,83.26
2022-10-24T00:13:32.672Z,83.31
2022-10-24T00:13:41.856Z,83.31
2022-10-24T00:13:53.303Z,83.26
2022-10-24T00:14:03.293Z,83.34
2022-10-24T00:14:11.866Z,83.21
2022-10-24T00:14:22.807Z,83.08
2022-10-24T00:14:31.859Z,83.07
2022-10-24T00:14:42.816Z,82.98
2022-10-24T00:14:51.857Z,82.90
2022-10-24T00:15:01.877Z,82.67
2022-10-24T00:15:13.343Z,82.64
2022-10-24T00:15:21.855Z,82.73
2022-10-24T00:15:33.279Z,82.65
2022-10-24T00:15:41.887Z,82.75
2022-10-24T00:15:53.288Z,82.68
2022-10-24T00:16:03.297Z,82.64
2022-10-24T00:16:12.667Z,82.60
2022-10-24T00:16:21.907Z,82.57
2022-10-24T00:16:33.267Z,82.65
2022-10-24T00:16:41.847Z,82.89
2022-10-24T00:16:51.867Z,82.76
2022-10-24T00:17:01.807Z,82.84
2022-10-24T00:17:13.306Z,82.77
2022-10-24T00:17:23.287Z,82.82
2022-10-24T00:17:33.278Z,82.83
2022-10-24T00:17:43.271Z,82.82
2022-10-24T00:17:51.817Z,82.71
2022-10-24T00:18:03.279Z,82.68
2022-10-24T00:18:11.838Z,82.91
2022-10-24T00:18:23.267Z,82.84
2022-10-24T00:18:31.846Z,82.84
2022-10-24T00:18:41.839Z,82.72
2022-10-24T00:18:51.818Z,82.75
2022-10-24T00:19:01.828Z,82.75
2022-10-24T00:19:11.887Z,82.76
2022-10-24T00:19:21.831Z,82.74
2022-10-24T00:19:31.816Z,82.76
2022-10-24T00:19:41.934Z,82.80
2022-10-24T00:19:51.798Z,82.81
2022-10-24T00:20:01.836Z,82.79
2022-10-24T00:20:13.288Z,82.82
2022-10-24T00:20:23.249Z,83.02
2022-10-24T00:20:33.277Z,82.97
2022-10-24T00:20:44.814Z,82.93
2022-10-24T00:20:53.251Z,83.08
2022-10-24T00:21:03.241Z,83.01
2022-10-24T00:21:13.269Z,82.77
2022-10-24T00:21:21.804Z,82.57
2022-10-24T00:21:32.750Z,82.45
2022-10-24T00:21:41.810Z,82.54
2022-10-24T00:21:51.806Z,82.46
2022-10-24T00:22:01.839Z,82.43
2022-10-24T00:22:11.806Z,82.47
2022-10-24T00:22:21.859Z,82.43
2022-10-24T00:22:32.308Z,82.43
2022-10-24T00:22:42.106Z,82.47
2022-10-24T00:22:51.790Z,82.45
2022-10-24T00:23:01.809Z,82.38
2022-10-24T00:23:11.788Z,82.39
2022-10-24T00:23:23.250Z,82.31
2022-10-24T00:23:33.229Z,82.28
2022-10-24T00:23:41.994Z,82.13
2022-10-24T00:23:52.390Z,81.96
2022-10-24T00:24:02.341Z,81.99
2022-10-24T00:24:12.039Z,81.95
2022-10-24T00:24:21.779Z,81.96
2022-10-24T00:24:32.450Z,81.87
2022-10-24T00:24:42.368Z,81.95
2022-10-24T00:24:52.141Z,81.94
2022-10-24T00:25:03.229Z,81.92
2022-10-24T00:25:11.790Z,82.05
2022-10-24T00:25:22.190Z,81.92
2022-10-24T00:25:31.760Z,81.90
2022-10-24T00:25:41.789Z,81.93
2022-10-24T00:25:52.508Z,81.98
2022-10-24T00:26:03.239Z,82.03
2022-10-24T00:26:13.210Z,81.99
2022-10-24T00:26:22.098Z,82.00
2022-10-24T00:26:31.829Z,81.99
2022-10-24T00:26:41.750Z,81.99
2022-10-24T00:26:51.790Z,82.00
2022-10-24T00:27:01.741Z,81.95
2022-10-24T00:27:11.759Z,82.04
2022-10-24T00:27:21.804Z,82.09
2022-10-24T00:27:33.180Z,82.13
2022-10-24T00:27:41.750Z,82.34
2022-10-24T00:27:52.520Z,82.21
2022-10-24T00:28:01.770Z,82.33
2022-10-24T00:28:13.231Z,82.26
2022-10-24T00:28:23.208Z,82.41
2022-10-24T00:28:33.225Z,82.35
2022-10-24T00:28:41.774Z,82.41
2022-10-24T00:28:51.870Z,82.20
2022-10-24T00:29:03.220Z,82.28
2022-10-24T00:29:11.751Z,82.42
2022-10-24T00:29:21.752Z,82.36
2022-10-24T00:29:31.733Z,82.42
2022-10-24T00:29:41.742Z,82.43
2022-10-24T00:29:51.750Z,82.37
2022-10-24T00:30:01.731Z,82.41
2022-10-24T00:30:11.780Z,82.44
2022-10-24T00:30:21.755Z,82.46
2022-10-24T00:30:33.203Z,82.55
2022-10-24T00:30:41.821Z,82.65
2022-10-24T00:30:51.745Z,82.53
2022-10-24T00:31:02.521Z,82.48
2022-10-24T00:31:13.195Z,82.52
2022-10-24T00:31:21.711Z,82.53
2022-10-24T00:31:31.754Z,82.49
2022-10-24T00:31:42.721Z,82.56
2022-10-24T00:31:53.172Z,82.64
2022-10-24T00:32:01.732Z,82.65
2022-10-24T00:32:13.190Z,82.56
2022-10-24T00:32:21.758Z,82.76
2022-10-24T00:32:31.775Z,82.66
2022-10-24T00:32:43.560Z,82.72
2022-10-24T00:32:51.720Z,82.92
2022-10-24T00:33:03.174Z,82.67
2022-10-24T00:33:13.180Z,82.74
2022-10-24T00:33:23.171Z,82.67
2022-10-24T00:33:33.172Z,82.54
2022-10-24T00:33:43.178Z,82.52
2022-10-24T00:33:51.776Z,82.52
2022-10-24T00:34:01.702Z,82.45
2022-10-24T00:34:13.173Z,82.55
2022-10-24T00:34:21.702Z,82.56
2022-10-24T00:34:33.173Z,82.42
2022-10-24T00:34:43.172Z,82.60
2022-10-24T00:34:52.664Z,82.59
2022-10-24T00:35:01.706Z,82.55
2022-10-24T00:35:11.752Z,82.58
2022-10-24T00:35:21.684Z,82.67
2022-10-24T00:35:31.733Z,82.69
2022-10-24T00:35:41.702Z,82.63
2022-10-24T00:35:53.153Z,82.63
2022-10-24T00:36:03.160Z,82.69
2022-10-24T00:36:11.700Z,82.67
2022-10-24T00:36:21.702Z,82.51
2022-10-24T00:36:31.772Z,82.52
2022-10-24T00:36:43.179Z,82.62
2022-10-24T00:36:51.695Z,82.70
2022-10-24T00:37:03.143Z,82.54
2022-10-24T00:37:13.203Z,82.71
2022-10-24T00:37:22.688Z,82.67
2022-10-24T00:37:33.152Z,82.62
2022-10-24T00:37:41.887Z,82.69
2022-10-24T00:37:51.693Z,82.65
2022-10-24T00:38:03.461Z,82.72
2022-10-24T00:38:12.155Z,82.84
2022-10-24T00:38:23.130Z,82.74
2022-10-24T00:38:33.123Z,82.83
2022-10-24T00:38:41.675Z,82.78
2022-10-24T00:38:51.812Z,82.70
2022-10-24T00:39:01.673Z,82.68
2022-10-24T00:39:12.044Z,82.74
2022-10-24T00:39:21.666Z,82.80
2022-10-24T00:39:33.115Z,82.78
2022-10-24T00:39:41.672Z,83.00
2022-10-24T00:39:51.683Z,82.78
2022-10-24T00:40:01.709Z,82.77
2022-10-24T00:40:13.170Z,82.87
2022-10-24T00:40:23.134Z,82.95
2022-10-24T00:40:31.665Z,82.86
2022-10-24T00:40:42.623Z,82.78
2022-10-24T00:40:51.756Z,82.93
2022-10-24T00:41:03.124Z,82.87
2022-10-24T00:41:11.667Z,82.98
2022-10-24T00:41:22.626Z,82.75
2022-10-24T00:41:32.614Z,82.84
2022-10-24T00:41:43.128Z,82.82
2022-10-24T00:41:53.104Z,82.88
2022-10-24T00:42:01.664Z,82.82
2022-10-24T00:42:11.737Z,82.74
2022-10-24T00:42:22.454Z,82.80
2022-10-24T00:42:31.671Z,82.94
2022-10-24T00:42:43.102Z,82.87
2022-10-24T00:42:51.654Z,83.03
2022-10-24T00:43:01.715Z,82.93
2022-10-24T00:43:12.634Z,82.92
2022-10-24T00:43:21.655Z,82.99
2022-10-24T00:43:31.647Z,82.90
2022-10-24T00:43:41.679Z,82.94
2022-10-24T00:43:53.095Z,82.92
2022-10-24T00:44:01.665Z,83.09
2022-10-24T00:44:13.114Z,82.89
2022-10-24T00:44:23.077Z,83.08
2022-10-24T00:44:33.076Z,83.08
2022-10-24T00:44:43.092Z,83.08
2022-10-24T00:44:51.786Z,83.10
2022-10-24T00:45:02.365Z,83.00
2022-10-24T00:45:11.715Z,83.15
2022-10-24T00:45:21.675Z,83.07
2022-10-24T00:45:31.692Z,83.07
2022-10-24T00:45:43.295Z,83.11
2022-10-24T00:45:51.636Z,83.35
2022-10-24T00:46:01.636Z,83.16
2022-10-24T00:46:11.648Z,83.19
2022-10-24T00:46:23.076Z,83.22
2022-10-24T00:46:31.636Z,83.31
2022-10-24T00:46:41.764Z,83.22
2022-10-24T00:46:52.576Z,83.33
2022-10-24T00:47:02.517Z,83.38
2022-10-24T00:47:11.616Z,83.41
2022-10-24T00:47:21.748Z,83.31
2022-10-24T00:47:31.606Z,83.33
2022-10-24T00:47:41.692Z,83.33
2022-10-24T00:47:51.697Z,83.34
2022-10-24T00:48:01.619Z,83.32
2022-10-24T00:48:13.086Z,83.33
2022-10-24T00:48:23.049Z,83.46
2022-10-24T00:48:31.607Z,83.40
2022-10-24T00:48:42.358Z,83.27
2022-10-24T00:48:51.623Z,83.32
2022-10-24T00:49:01.624Z,83.27
2022-10-24T00:49:13.067Z,83.29
2022-10-24T00:49:21.609Z,83.40
2022-10-24T00:49:31.588Z,83.28
2022-10-24T00:49:43.067Z,83.23
2022-10-24T00:49:53.056Z,83.26
2022-10-24T00:50:02.256Z,83.20
2022-10-24T00:50:11.659Z,83.17
2022-10-24T00:50:21.618Z,83.15
2022-10-24T00:50:31.605Z,83.19
2022-10-24T00:50:43.077Z,83.14
2022-10-24T00:50:51.617Z,83.23
2022-10-24T00:51:03.047Z,83.05
2022-10-24T00:51:11.597Z,83.22
2022-10-24T00:51:21.725Z,83.17
2022-10-24T00:51:31.568Z,83.22
2022-10-24T00:51:42.586Z,83.17
2022-10-24T00:51:51.595Z,83.20
2022-10-24T00:52:01.588Z,83.14
2022-10-24T00:52:11.729Z,83.21
2022-10-24T00:52:21.587Z,83.29
2022-10-24T00:52:31.587Z,83.20
2022-10-24T00:52:43.029Z,83.21
2022-10-24T00:52:51.767Z,83.27
2022-10-24T00:53:01.798Z,83.23
2022-10-24T00:53:11.767Z,83.27
2022-10-24T00:53:21.768Z,83.26
2022-10-24T00:53:31.813Z,83.20
2022-10-24T00:53:43.027Z,83.22
2022-10-24T00:53:51.602Z,83.39
2022-10-24T00:54:01.819Z,83.29
2022-10-24T00:54:13.018Z,83.35
2022-10-24T00:54:21.576Z,83.43
2022-10-24T00:54:31.607Z,83.24
2022-10-24T00:54:41.841Z,83.33
2022-10-24T00:54:51.893Z,83.32
2022-10-24T00:55:01.556Z,83.35
2022-10-24T00:55:13.062Z,83.40
2022-10-24T00:55:21.887Z,83.56
2022-10-24T00:55:31.918Z,83.45
2022-10-24T00:55:41.577Z,83.51
2022-10-24T00:55:51.898Z,83.51
2022-10-24T00:56:01.538Z,83.52
2022-10-24T00:56:13.011Z,83.46
2022-10-24T00:56:21.549Z,83.57
2022-10-24T00:56:31.582Z,83.43
2022-10-24T00:56:41.615Z,83.47
2022-10-24T00:56:51.549Z,83.56
2022-10-24T00:57:01.551Z,83.55
2022-10-24T00:57:13.023Z,83.62
2022-10-24T00:57:22.479Z,83.77
2022-10-24T00:57:31.558Z,83.73
2022-10-24T00:57:43.235Z,83.64
2022-10-24T00:57:52.488Z,83.82
2022-10-24T00:58:02.979Z,83.71
2022-10-24T00:58:12.503Z,83.76
2022-10-24T00:58:21.600Z,83.69
2022-10-24T00:58:31.629Z,83.70
2022-10-24T00:58:41.528Z,83.80
2022-10-24T00:58:52.981Z,83.83
2022-10-24T00:59:02.989Z,83.88
2022-10-24T00:59:12.979Z,83.80
2022-10-24T00:59:21.530Z,83.84
2022-10-24T00:59:32.999Z,83.80
2022-10-24T00:59:41.520Z,83.95
2022-10-24T00:59:51.529Z,83.82
2022-10-24T01:00:01.749Z,83.88
2022-10-24T01:00:12.989Z,83.98
2022-10-24T01:00:21.699Z,84.09
2022-10-24T01:00:31.627Z,83.93
2022-10-24T01:00:43.028Z,83.96
2022-10-24T01:00:53.021Z,84.13
2022-10-24T01:01:01.870Z,84.12
2022-10-24T01:01:11.601Z,84.00
2022-10-24T01:01:21.604Z,83.98
2022-10-24T01:01:31.907Z,84.03
2022-10-24T01:01:41.882Z,84.03
2022-10-24T01:01:51.537Z,83.98
2022-10-24T01:02:01.941Z,83.96
2022-10-24T01:02:15.959Z,83.97
2022-10-24T01:02:21.512Z,84.40
2022-10-24T01:02:31.761Z,84.22
2022-10-24T01:02:43.153Z,84.13
2022-10-24T01:02:52.279Z,84.21
2022-10-24T01:03:02.951Z,84.03
2022-10-24T01:03:12.955Z,84.04
2022-10-24T01:03:21.538Z,84.06
2022-10-24T01:03:31.970Z,83.95
2022-10-24T01:03:42.940Z,84.02
2022-10-24T01:03:51.950Z,84.07
2022-10-24T01:04:01.490Z,84.05
2022-10-24T01:04:13.038Z,84.14
2022-10-24T01:04:22.948Z,84.22
2022-10-24T01:04:32.455Z,84.18
2022-10-24T01:04:42.970Z,84.13
2022-10-24T01:04:51.501Z,84.12
2022-10-24T01:05:01.528Z,84.02
2022-10-24T01:05:11.512Z,84.05
2022-10-24T01:05:21.481Z,84.13
2022-10-24T01:05:31.521Z,84.03
2022-10-24T01:05:42.941Z,84.00
2022-10-24T01:05:51.481Z,84.17
2022-10-24T01:06:01.506Z,84.03
2022-10-24T01:06:11.511Z,84.01
2022-10-24T01:06:21.471Z,83.96
2022-10-24T01:06:32.441Z,83.91
2022-10-24T01:06:42.921Z,84.04
2022-10-24T01:06:51.522Z,83.98
2022-10-24T01:07:01.512Z,83.87
2022-10-24T01:07:11.464Z,83.88
2022-10-24T01:07:22.936Z,83.93
2022-10-24T01:07:31.492Z,84.04
2022-10-24T01:07:41.471Z,83.92
2022-10-24T01:07:51.499Z,83.93
2022-10-24T01:08:02.403Z,83.93
2022-10-24T01:08:12.939Z,83.97
2022-10-24T01:08:23.031Z,84.04
2022-10-24T01:08:32.243Z,84.00
2022-10-24T01:08:42.924Z,83.99
2022-10-24T01:08:51.492Z,84.00
2022-10-24T01:09:01.570Z,83.90
2022-10-24T01:09:12.440Z,83.93
2022-10-24T01:09:22.893Z,84.05
2022-10-24T01:09:32.950Z,84.06
2022-10-24T01:09:41.460Z,84.02
2022-10-24T01:09:51.543Z,83.94
2022-10-24T01:10:02.932Z,84.03
2022-10-24T01:10:12.903Z,84.11
2022-10-24T01:10:22.518Z,84.06
2022-10-24T01:10:32.954Z,84.10
2022-10-24T01:10:42.899Z,84.12
2022-10-24T01:10:51.453Z,84.11
2022-10-24T01:11:02.925Z,84.07
2022-10-24T01:11:12.894Z,84.12
2022-10-24T01:11:23.322Z,84.08
2022-10-24T01:11:31.455Z,84.45
2022-10-24T01:11:42.893Z,84.27
2022-10-24T01:11:52.924Z,84.23
2022-10-24T01:12:01.442Z,84.22
2022-10-24T01:12:12.923Z,84.08
2022-10-24T01:12:22.895Z,84.19
2022-10-24T01:12:31.462Z,84.13
2022-10-24T01:12:41.655Z,83.99
2022-10-24T01:12:51.450Z,84.17
2022-10-24T01:13:01.595Z,84.17
2022-10-24T01:13:12.984Z,84.23
2022-10-24T01:13:22.890Z,84.32
2022-10-24T01:13:32.892Z,84.31
2022-10-24T01:13:41.434Z,84.20
2022-10-24T01:13:51.458Z,84.04
2022-10-24T01:14:01.493Z,84.04
2022-10-24T01:14:11.473Z,84.08
2022-10-24T01:14:22.194Z,84.21
2022-10-24T01:14:32.911Z,84.24
2022-10-24T01:14:42.864Z,84.32
2022-10-24T01:14:52.882Z,84.30
2022-10-24T01:15:01.454Z,84.35
2022-10-24T01:15:11.423Z,84.27
2022-10-24T01:15:21.404Z,84.24
2022-10-24T01:15:33.656Z,84.21
2022-10-24T01:15:42.844Z,84.21
2022-10-24T01:15:52.884Z,84.15
2022-10-24T01:16:02.911Z,84.18
2022-10-24T01:16:12.877Z,84.20
2022-10-24T01:16:21.433Z,84.19
2022-10-24T01:16:32.245Z,84.02
2022-10-24T01:16:41.425Z,83.98
2022-10-24T01:17:30.283Z,84.67
2022-10-24T01:17:40.353Z,84.37
2022-10-24T01:17:48.843Z,84.20
2022-10-24T01:17:58.779Z,84.02
2022-10-24T01:18:08.940Z,83.98
2022-10-24T01:18:18.784Z,84.00
2022-10-24T01:18:28.844Z,83.91
2022-10-24T01:18:38.773Z,83.93
2022-10-24T01:18:48.852Z,83.91
2022-10-24T01:18:58.904Z,83.90
2022-10-24T01:19:10.234Z,83.85
2022-10-24T01:19:18.820Z,83.92
2022-10-24T01:19:30.245Z,83.83
2022-10-24T01:19:38.782Z,83.99
2022-10-24T01:19:48.809Z,83.88
2022-10-24T01:19:58.803Z,83.84
2022-10-24T01:20:10.243Z,83.89
2022-10-24T01:20:20.215Z,83.93
2022-10-24T01:20:28.923Z,83.86
2022-10-24T01:20:39.543Z,83.81
2022-10-24T01:20:50.308Z,83.83
2022-10-24T01:20:58.802Z,83.84
2022-10-24T01:21:10.215Z,83.77
2022-10-24T01:21:19.223Z,83.93
2022-10-24T01:21:30.244Z,83.86
2022-10-24T01:21:40.206Z,84.01
2022-10-24T01:21:50.223Z,84.03
2022-10-24T01:21:59.766Z,84.01
2022-10-24T01:22:10.242Z,83.95
2022-10-24T01:22:18.756Z,83.89
2022-10-24T01:22:28.783Z,83.80
2022-10-24T01:22:38.764Z,83.90
2022-10-24T01:22:50.238Z,83.97
2022-10-24T01:22:58.763Z,84.02
2022-10-24T01:23:09.555Z,83.92
2022-10-24T01:23:20.220Z,84.04
2022-10-24T01:23:29.034Z,84.02
2022-10-24T01:23:38.813Z,83.95
2022-10-24T01:23:48.771Z,83.98
2022-10-24T01:23:59.164Z,83.96
2022-10-24T01:24:08.753Z,83.93
2022-10-24T01:24:20.194Z,83.89
2022-10-24T01:24:30.201Z,84.06
2022-10-24T01:24:40.184Z,84.03
2022-10-24T01:24:50.211Z,84.02
2022-10-24T01:24:59.772Z,83.95
2022-10-24T01:25:09.284Z,84.07
2022-10-24T01:25:18.742Z,84.10
2022-10-24T01:25:30.176Z,84.02
2022-10-24T01:25:40.184Z,84.05
2022-10-24T01:25:48.734Z,83.95
2022-10-24T01:26:00.904Z,83.84
2022-10-24T01:26:09.686Z,84.06
2022-10-24T01:26:18.755Z,83.92
2022-10-24T01:26:30.232Z,83.94
2022-10-24T01:26:40.192Z,84.09
2022-10-24T01:26:50.175Z,84.08
2022-10-24T01:26:58.715Z,84.09
2022-10-24T01:27:09.748Z,84.02
2022-10-24T01:27:20.166Z,84.19
2022-10-24T01:27:30.545Z,84.19
2022-10-24T01:27:40.203Z,84.17
2022-10-24T01:27:50.175Z,84.12
2022-10-24T01:28:00.178Z,84.15
2022-10-24T01:28:08.727Z,84.14
2022-10-24T01:28:19.694Z,84.03
2022-10-24T01:28:29.485Z,84.15
2022-10-24T01:28:38.733Z,84.14
2022-10-24T01:28:48.735Z,84.18
2022-10-24T01:29:00.155Z,84.16
2022-10-24T01:29:09.688Z,84.29
2022-10-24T01:29:18.746Z,84.24
2022-10-24T01:29:28.705Z,84.16
2022-10-24T01:29:38.713Z,84.21
2022-10-24T01:29:48.715Z,84.23
2022-10-24T01:30:00.166Z,84.24
2022-10-24T01:30:10.171Z,84.38
2022-10-24T01:30:19.696Z,84.29
2022-10-24T01:30:30.184Z,84.15
2022-10-24T01:30:40.156Z,84.14
2022-10-24T01:30:48.705Z,84.12
2022-10-24T01:31:00.164Z,83.98
2022-10-24T01:31:10.157Z,84.17
2022-10-24T01:31:20.155Z,84.17
2022-10-24T01:31:28.726Z,84.21
2022-10-24T01:31:38.697Z,84.07
2022-10-24T01:31:48.847Z,84.31
2022-10-24T01:31:58.676Z,84.31
2022-10-24T01:32:08.730Z,84.21
2022-10-24T01:32:18.676Z,84.26
2022-10-24T01:32:30.152Z,84.30
2022-10-24T01:32:38.848Z,84.38
2022-10-24T01:32:48.667Z,84.21
2022-10-24T01:33:00.147Z,84.30
2022-10-24T01:33:10.138Z,84.37
2022-10-24T01:33:20.136Z,84.37
2022-10-24T01:33:28.857Z,84.29
2022-10-24T01:33:40.127Z,84.30
2022-10-24T01:33:50.156Z,84.44
2022-10-24T01:34:00.136Z,84.45
2022-10-24T01:34:10.157Z,84.44
2022-10-24T01:34:20.117Z,84.42
2022-10-24T01:34:30.159Z,84.39
2022-10-24T01:34:40.128Z,84.38
2022-10-24T01:34:48.678Z,84.42
2022-10-24T01:35:00.135Z,84.33
2022-10-24T01:35:08.708Z,84.54
2022-10-24T01:35:18.707Z,84.42
2022-10-24T01:35:40.285Z,84.62
2022-10-24T01:35:50.268Z,84.44
2022-10-24T01:35:58.920Z,84.39
2022-10-24T01:36:10.280Z,84.33
2022-10-24T01:36:18.809Z,84.44
2022-10-24T01:36:30.295Z,84.36
2022-10-24T01:36:38.818Z,84.45
2022-10-24T01:36:48.828Z,84.34
2022-10-24T01:37:00.288Z,84.40
2022-10-24T01:37:10.269Z,84.53
2022-10-24T01:37:20.268Z,84.41
2022-10-24T01:37:29.718Z,84.42
2022-10-24T01:37:38.807Z,84.37
2022-10-24T01:37:48.818Z,84.32
2022-10-24T01:37:58.928Z,84.38
2022-10-24T01:38:08.798Z,84.50
2022-10-24T01:38:19.641Z,84.49
2022-10-24T01:38:28.880Z,84.51
2022-10-24T01:38:38.800Z,84.45
2022-10-24T01:38:50.246Z,84.46
2022-10-24T01:38:59.007Z,84.56
2022-10-24T01:39:08.830Z,84.39
2022-10-24T01:39:20.241Z,84.34
2022-10-24T01:39:29.419Z,84.41
2022-10-24T01:39:38.812Z,84.37
2022-10-24T01:39:48.819Z,84.34
2022-10-24T01:39:59.109Z,84.32
2022-10-24T01:40:10.270Z,84.33
2022-10-24T01:40:20.239Z,84.32
2022-10-24T01:40:30.265Z,84.34
2022-10-24T01:40:40.219Z,84.34
2022-10-24T01:40:50.237Z,84.39
2022-10-24T01:40:58.918Z,84.42
2022-10-24T01:41:10.239Z,84.34
2022-10-24T01:41:18.779Z,84.43
2022-10-24T01:41:30.270Z,84.35
2022-10-24T01:41:40.229Z,84.51
2022-10-24T01:41:48.829Z,84.45
2022-10-24T01:41:59.067Z,84.35
2022-10-24T01:42:09.090Z,84.32
2022-10-24T01:42:20.216Z,84.28
2022-10-24T01:42:30.220Z,84.36
2022-10-24T01:42:38.989Z,84.41
2022-10-24T01:42:49.129Z,84.28
2022-10-24T01:42:59.179Z,84.30
2022-10-24T01:43:09.101Z,84.32
2022-10-24T01:43:18.770Z,84.25
2022-10-24T01:43:29.170Z,84.25
2022-10-24T01:43:38.894Z,84.31
2022-10-24T01:43:49.122Z,84.36
2022-10-24T01:43:59.181Z,84.43
2022-10-24T01:44:09.227Z,84.40
2022-10-24T01:44:20.201Z,84.41
2022-10-24T01:44:30.230Z,84.43
2022-10-24T01:44:38.759Z,84.44
2022-10-24T01:44:48.798Z,84.36
2022-10-24T01:44:58.770Z,84.37
2022-10-24T01:45:10.210Z,84.35
2022-10-24T01:45:18.751Z,84.49
2022-10-24T01:45:30.201Z,84.32
2022-10-24T01:45:40.213Z,84.41
2022-10-24T01:45:50.203Z,84.40
2022-10-24T01:46:00.222Z,84.38
2022-10-24T01:46:08.748Z,84.36
2022-10-24T01:46:20.195Z,84.28
2022-10-24T01:46:28.792Z,84.40
2022-10-24T01:46:39.728Z,84.29
2022-10-24T01:46:50.202Z,84.40
2022-10-24T01:47:00.206Z,84.48
2022-10-24T01:47:09.698Z,84.36
2022-10-24T01:47:18.751Z,84.32
2022-10-24T01:47:30.190Z,84.26
2022-10-24T01:47:40.201Z,84.39
2022-10-24T01:47:48.731Z,84.45
2022-10-24T01:47:58.750Z,84.28
2022-10-24T01:48:08.759Z,84.33
2022-10-24T01:48:18.731Z,84.35
2022-10-24T01:48:28.813Z,84.37
2022-10-24T01:48:40.201Z,84.40
2022-10-24T01:48:50.164Z,84.43
2022-10-24T01:49:00.201Z,84.36
2022-10-24T01:49:10.211Z,84.41
2022-10-24T01:49:20.177Z,84.32
2022-10-24T01:49:29.670Z,84.36
2022-10-24T01:49:40.180Z,84.33
2022-10-24T01:49:48.872Z,84.35
2022-10-24T01:49:58.909Z,84.24
2022-10-24T01:50:08.702Z,84.26
2022-10-24T01:50:20.173Z,84.28
2022-10-24T01:50:29.672Z,84.36
2022-10-24T01:50:38.953Z,84.33
2022-10-24T01:50:48.991Z,84.29
2022-10-24T01:50:59.022Z,84.21
2022-10-24T01:51:10.163Z,84.30
2022-10-24T01:51:18.711Z,84.38
2022-10-24T01:51:28.813Z,84.19
2022-10-24T01:51:40.174Z,84.21
2022-10-24T01:51:48.715Z,84.36
2022-10-24T01:52:00.201Z,84.23
2022-10-24T01:52:10.258Z,84.24
2022-10-24T01:52:18.741Z,84.20
2022-10-24T01:52:28.714Z,84.02
2022-10-24T01:52:40.173Z,84.05
2022-10-24T01:52:49.664Z,84.12
2022-10-24T01:53:00.172Z,84.06
2022-10-24T01:53:08.694Z,84.06
2022-10-24T01:53:21.120Z,83.89
2022-10-24T01:53:28.932Z,84.39
2022-10-24T01:53:38.684Z,84.22
2022-10-24T01:53:48.702Z,84.12
2022-10-24T01:53:58.708Z,84.07
2022-10-24T01:54:09.653Z,84.07
2022-10-24T01:54:18.721Z,84.12
2022-10-24T01:54:28.702Z,84.09
2022-10-24T01:54:38.721Z,84.02
2022-10-24T01:54:49.596Z,83.99
2022-10-24T01:55:00.132Z,84.05
2022-10-24T01:55:08.683Z,84.09
2022-10-24T01:55:20.133Z,83.95
2022-10-24T01:55:28.683Z,84.07
2022-10-24T01:55:38.775Z,83.95
2022-10-24T01:55:50.138Z,83.98
2022-10-24T01:55:58.749Z,84.07
2022-10-24T01:56:10.112Z,83.89
2022-10-24T01:56:18.815Z,84.02
2022-10-24T01:56:28.740Z,83.87
2022-10-24T01:56:38.783Z,83.93
2022-10-24T01:56:50.154Z,83.93
2022-10-24T01:56:58.722Z,84.04
2022-10-24T01:57:10.135Z,83.91
2022-10-24T01:57:20.133Z,84.07
2022-10-24T01:57:28.675Z,84.01
2022-10-24T01:57:38.894Z,83.91
2022-10-24T01:57:48.653Z,83.99
2022-10-24T01:57:58.825Z,83.94
2022-10-24T01:58:08.904Z,83.97
2022-10-24T01:58:18.644Z,83.94
2022-10-24T01:58:29.482Z,83.93
2022-10-24T01:58:38.674Z,83.94
2022-10-24T01:58:48.654Z,83.88
2022-10-24T01:59:00.124Z,83.84
2022-10-24T01:59:10.104Z,83.94
2022-10-24T01:59:18.644Z,83.93
2022-10-24T01:59:28.985Z,83.73
2022-10-24T01:59:39.635Z,83.85
2022-10-24T01:59:50.102Z,83.91
2022-10-24T01:59:58.653Z,83.96
2022-10-24T02:00:09.014Z,83.85
2022-10-24T02:00:18.644Z,83.91
2022-10-24T02:00:29.710Z,83.88
2022-10-24T02:00:39.042Z,83.89
2022-10-24T02:00:48.641Z,83.75
2022-10-24T02:00:58.832Z,83.78
2022-10-24T02:01:10.191Z,83.80
2022-10-24T02:01:18.683Z,83.85
2022-10-24T02:01:30.126Z,83.76
2022-10-24T02:01:38.677Z,83.92
2022-10-24T02:01:49.473Z,83.78
2022-10-24T02:01:58.662Z,83.86
2022-10-24T02:02:08.665Z,83.85
2022-10-24T02:02:18.653Z,83.81
2022-10-24T02:02:30.085Z,83.82
2022-10-24T02:02:38.634Z,83.87
2022-10-24T02:02:48.683Z,83.65
2022-10-24T02:02:58.655Z,83.68
2022-10-24T02:03:08.635Z,83.70
2022-10-24T02:03:19.565Z,83.73
2022-10-24T02:03:28.635Z,83.85
2022-10-24T02:03:38.666Z,83.62
2022-10-24T02:03:48.631Z,83.65
2022-10-24T02:03:58.754Z,83.70
2022-10-24T02:04:08.637Z,83.70
2022-10-24T02:04:18.640Z,83.69
2022-10-24T02:04:28.976Z,83.72
2022-10-24T02:04:38.608Z,83.74
2022-10-24T02:04:50.085Z,83.74
2022-10-24T02:04:58.644Z,83.77
2022-10-24T02:05:10.059Z,83.60
2022-10-24T02:05:18.623Z,83.72
2022-10-24T02:05:30.077Z,83.63
2022-10-24T02:05:40.065Z,83.64
2022-10-24T02:05:48.606Z,83.66
2022-10-24T02:05:58.626Z,83.55
2022-10-24T02:06:10.060Z,83.61
2022-10-24T02:06:18.617Z,83.78
2022-10-24T02:06:30.056Z,83.66
2022-10-24T02:06:38.650Z,83.75
2022-10-24T02:06:48.596Z,83.66
2022-10-24T02:06:58.619Z,83.68
2022-10-24T02:07:08.619Z,83.71
2022-10-24T02:07:20.056Z,83.77
2022-10-24T02:07:30.038Z,83.85
2022-10-24T02:07:38.656Z,83.78
2022-10-24T02:07:48.592Z,83.64
2022-10-24T02:07:58.607Z,83.66
2022-10-24T02:08:08.661Z,83.68
2022-10-24T02:08:18.600Z,83.72
2022-10-24T02:08:30.065Z,83.71
2022-10-24T02:08:40.057Z,83.92
2022-10-24T02:08:48.600Z,83.86
2022-10-24T02:08:59.549Z,83.63
2022-10-24T02:09:08.584Z,83.79
2022-10-24T02:09:18.607Z,83.73
2022-10-24T02:09:28.737Z,83.74
2022-10-24T02:09:38.587Z,83.77